Accueil
METAR-TAF:

METAR-TAF

Aéroports :

Cervia, Italie

latitude: 44-13N, longitude: 012-18E, altitude: 6 m

Observation

Le bulletin a été fait il y a 1 heure et 3 minutes, à 16:55 UTC
Vent 9 kt de est/sud-est
Température 22°C
Humidité 60%
Pression 1010 hPa
Visibilité 10 km ou plus
pas de nuages en-dessous de 1500 mètres et pas de cumulonimbus.

METAR: LIPC 191655Z 11009KT CAVOK 22/14 Q1010 RMK BKN SCT100 BKN200 VIS MIN 9999 WIND THR11 12008KT WIND THR29 12008KT BLU

Heure: 19:58 (17:58 UTC)

Prévision

Le bulletin a été fait il y a 58 minutes, à 17:00 UTC
Prévision valable du 19 à 18 UTC au 20 à 03 UTC
Vent 5 kt de est
Visibilité 10 km ou plus
pas de nuages en-dessous de 1500 mètres et pas de cumulonimbus.
Evoluant progressivement
du 19 à 20 UTC au 19 à 22 UTC
Vent 3 kt de direction variable
Visibilité 10 km ou plus
Nuages épars à une hauteur de 4000 ft

TAF: LIPC 191700Z 1918/2003 08005KT CAVOK BECMG 1920/1922 VRB03KT 9999 SCT040

Observations et prévisions météorologiques de plus de 4000 aéroports (messages METAR et TAF).

Les stations disponibles sont représentées par des disques jaunes et rouges sur la carte.

Passer la souris dessus pour voir le nom de la station.

Cliquer dessus pour voir les observations et prévisions météorologiques.

Pour changer de carte: cliquez sur les boutons verts avec une croix noire pour zoomer, sur le bouton vert avec un tiret pour effectuer un zoom arrière, ou sur les flèches vertes pour les cartes adjacentes.


METAR-TAF: